• Join FlightAware (Why Join?)
  • Login
  • US Flag 
03:08AM EDT


 

Airport Tracker/Info


-or-


 

Live Flight TrackerFlight Track Log ✈ UPS110 ✈ 21-Jun-2014 ✈ KSDF - PANC

Flight Track Log - Related Links

Times and Time Zones

All times are in EDT time to prevent confusion due to time zone crossing. See the UPS110 flight status page for this flight to view local times or setup timezone preferences in your user account.

Time Position Orientation Groundspeed Altitude Reporting Facility
EDT Latitude Longitude Course Direction KTS MPH feet Rate Location/Type
05:08AM 38.1500 -85.7333 214° Southwest 178 205 1,400  Level Louisville TRACON
05:10AM 38.0633 -85.8081 214° Southwest 290 334 4,700 1,980 Climbing Indianapolis Center
05:11AM 38.1239 -85.8544 329° Northwest 267 307 7,400 2,400 Climbing Indianapolis Center
05:12AM 38.1947 -85.8889 339° North 275 316 9,600 1,800 Climbing Indianapolis Center
05:13AM 38.2722 -85.9261 339° North 315 362 11,100 1,320 Climbing Indianapolis Center
05:14AM 38.3644 -85.9719 339° North 378 435 12,300 1,920 Climbing Indianapolis Center
05:15AM 38.4669 -86.0214 339° North 395 455 15,000 2,520 Climbing Indianapolis Center
05:16AM 38.5733 -86.0731 339° North 410 472 17,400 2,280 Climbing Indianapolis Center
05:17AM 38.6828 -86.1292 338° Northwest 427 491 19,600 2,040 Climbing Indianapolis Center
05:24AM 39.4527 -86.6628 331° Northwest 439 505 33,700 1,680 Climbing FlightAware ADS-B (KMDW)
05:25AM 39.6149 -86.7770 331° Northwest 442 509 34,000 120 Climbing FlightAware ADS-B (KMDW)
05:26AM 39.6829 -86.8253 331° Northwest 438 504 34,000  Level FlightAware ADS-B (KMDW)
05:27AM 39.7748 -86.8905 331° Northwest 435 501 34,000  Level FlightAware ADS-B (KMDW)
05:27AM 39.8391 -86.9364 331° Northwest 435 501 34,000  Level FlightAware ADS-B (KMDW)
05:28AM 39.9154 -86.9907 331° Northwest 435 501 34,000  Level FlightAware ADS-B (KMDW)
05:28AM 39.9818 -87.0383 331° Northwest 437 503 34,000  Level FlightAware ADS-B (KMDW)
05:29AM 40.0345 -87.0762 331° Northwest 440 506 34,000  Level FlightAware ADS-B (KMDW)
05:30AM 40.0910 -87.1167 331° Northwest 444 511 34,000  Level FlightAware ADS-B (KMDW)
05:30AM 40.1466 -87.1566 331° Northwest 446 513 34,000  Level FlightAware ADS-B (KMDW)
05:31AM 40.2013 -87.1962 331° Northwest 450 518 34,000  Level FlightAware ADS-B (KMDW)
05:31AM 40.2563 -87.2359 331° Northwest 453 521 34,000  Level FlightAware ADS-B (KMDW)
05:32AM 40.3073 -87.2727 331° Northwest 454 522 34,000  Level FlightAware ADS-B (KMDW)
05:32AM 40.3667 -87.3158 331° Northwest 457 526 34,000  Level FlightAware ADS-B (KMDW)
05:33AM 40.4208 -87.3551 331° Northwest 459 528 34,000  Level FlightAware ADS-B (KMDW)
05:33AM 40.4780 -87.3967 331° Northwest 459 528 34,000  Level FlightAware ADS-B (KMDW)
05:34AM 40.5335 -87.4372 331° Northwest 460 529 34,000  Level FlightAware ADS-B (KMDW)
05:34AM 40.5895 -87.4782 331° Northwest 459 528 34,000  Level FlightAware ADS-B (KMDW)
05:35AM 40.6443 -87.5183 331° Northwest 458 527 34,000  Level FlightAware ADS-B (KMDW)
05:35AM 40.6995 -87.5588 331° Northwest 458 527 34,000  Level FlightAware ADS-B (KMDW)
05:36AM 40.7587 -87.6022 331° Northwest 456 525 34,000  Level FlightAware ADS-B (KPWK)
05:36AM 40.8264 -87.6520 331° Northwest 455 524 34,000  Level FlightAware ADS-B (KMDW)
05:37AM 40.8822 -87.6933 331° Northwest 453 521 34,000  Level FlightAware ADS-B (KMDW)
05:37AM 40.9388 -87.7351 331° Northwest 451 519 34,000  Level FlightAware ADS-B (KMDW)
05:38AM 40.9933 -87.7756 331° Northwest 450 518 34,000  Level FlightAware ADS-B (KMDW)
05:38AM 41.0478 -87.8160 331° Northwest 449 517 34,000  Level FlightAware ADS-B (KMDW)
05:39AM 41.1013 -87.8558 331° Northwest 446 513 34,000  Level FlightAware ADS-B (KMDW)
05:39AM 41.1546 -87.8955 331° Northwest 446 513 34,000  Level FlightAware ADS-B (KMDW)
05:40AM 41.2071 -87.9347 331° Northwest 444 511 34,000  Level FlightAware ADS-B (KMDW)
05:40AM 41.2782 -87.9878 331° Northwest 443 510 34,000  Level FlightAware ADS-B (KMDW)
05:41AM 41.3262 -88.0239 331° Northwest 442 509 34,000  Level FlightAware ADS-B (KPWK)
05:41AM 41.3882 -88.0704 331° Northwest 442 509 34,000  Level FlightAware ADS-B (KMDW)
05:42AM 41.4359 -88.1063 330° Northwest 442 509 34,000  Level FlightAware ADS-B (KMDW)
05:42AM 41.4930 -88.1494 330° Northwest 442 509 34,000  Level FlightAware ADS-B (KMDW)
05:43AM 41.5442 -88.1881 330° Northwest 442 509 34,000  Level FlightAware ADS-B (KMDW)
05:43AM 41.6013 -88.2313 330° Northwest 442 509 34,000  Level FlightAware ADS-B (KMDW)
05:44AM 41.6539 -88.2712 330° Northwest 442 509 34,000  Level FlightAware ADS-B (KMDW)
05:44AM 41.7122 -88.3155 330° Northwest 441 507 34,000  Level FlightAware ADS-B
05:45AM 41.7784 -88.3658 330° Northwest 441 507 34,000  Level FlightAware ADS-B (KMDW)
05:46AM 41.8303 -88.4055 330° Northwest 441 507 34,000  Level FlightAware ADS-B (KMDW)
05:46AM 41.8821 -88.4452 330° Northwest 441 507 34,000  Level FlightAware ADS-B (KMDW)
05:47AM 41.9312 -88.4829 330° Northwest 440 506 34,000  Level FlightAware ADS-B (KMDW)
05:47AM 41.9899 -88.5280 330° Northwest 440 506 34,000  Level FlightAware ADS-B (KMDW)
05:48AM 42.0431 -88.5688 330° Northwest 440 506 34,000  Level FlightAware ADS-B (KMDW)
05:48AM 42.0938 -88.6080 330° Northwest 439 505 34,000  Level FlightAware ADS-B (KMDW)
05:49AM 42.1464 -88.6486 330° Northwest 438 504 34,000  Level FlightAware ADS-B (KMDW)
05:49AM 42.1994 -88.6897 330° Northwest 438 504 34,000  Level FlightAware ADS-B (KMDW)
05:50AM 42.2704 -88.7446 330° Northwest 438 504 34,000  Level FlightAware ADS-B (KMDW)
05:50AM 42.3240 -88.7863 330° Northwest 439 505 34,000  Level FlightAware ADS-B (KMDW)
05:51AM 42.3775 -88.8280 330° Northwest 438 504 34,000  Level FlightAware ADS-B (KMDW)
05:51AM 42.4012 -88.8464 330° Northwest 438 504 34,000  Level FlightAware ADS-B (KPWK)
05:52AM 42.4982 -88.9223 330° Northwest 438 504 34,000  Level FlightAware ADS-B (KMDW)
05:52AM 42.5491 -88.9621 330° Northwest 438 504 34,000  Level FlightAware ADS-B (KMDW)
05:53AM 42.6051 -89.0061 330° Northwest 438 504 34,000  Level FlightAware ADS-B (KMDW)
05:53AM 42.6565 -89.0466 330° Northwest 439 505 34,000  Level FlightAware ADS-B (KMDW)
05:54AM 42.7223 -89.0986 330° Northwest 438 504 34,000  Level FlightAware ADS-B (KMSN)
05:55AM 42.7803 -89.1445 330° Northwest 439 505 34,000  Level FlightAware ADS-B (KMDW)
05:55AM 42.8309 -89.1845 330° Northwest 439 505 34,000  Level FlightAware ADS-B (KMDW)
05:56AM 42.8854 -89.2278 330° Northwest 440 506 34,000  Level FlightAware ADS-B (KMDW)
05:56AM 42.9367 -89.2685 330° Northwest 439 505 34,000  Level FlightAware ADS-B (KMDW)
05:57AM 43.0029 -89.3213 330° Northwest 439 505 34,000  Level FlightAware ADS-B (KMSN)
05:57AM 43.0544 -89.3625 330° Northwest 440 506 34,000  Level FlightAware ADS-B (KMSN)
05:58AM 43.1240 -89.4183 330° Northwest 440 506 34,000  Level FlightAware ADS-B (KMSN)
05:58AM 43.1760 -89.4601 330° Northwest 440 506 34,000  Level FlightAware ADS-B (KMSN)
05:59AM 43.2258 -89.5001 330° Northwest 439 505 34,000  Level FlightAware ADS-B (KMSN)
05:59AM 43.2942 -89.5552 329° Northwest 438 504 34,000  Level FlightAware ADS-B (KMSN)
06:00AM 43.3326 -89.5863 330° Northwest 438 504 34,000  Level FlightAware ADS-B (KPWK)
06:01AM 43.4104 -89.6492 329° Northwest 437 503 34,000  Level FlightAware ADS-B (KMDW)
06:01AM 43.5105 -89.7306 330° Northwest 435 501 34,000  Level FlightAware ADS-B (KMDW)
06:02AM 43.5788 -89.7828 329° Northwest 437 503 34,000  Level FlightAware ADS-B (KMDW)
06:03AM 43.6385 -89.8253 333° Northwest 435 501 34,000  Level FlightAware ADS-B (KMDW)
06:03AM 43.6919 -89.8631 333° Northwest 435 501 34,000  Level FlightAware ADS-B (KMDW)
06:04AM 43.8115 -89.9478 333° Northwest 435 501 34,000  Level FlightAware ADS-B (KMDW)
06:05AM 43.8845 -89.9995 333° Northwest 435 501 34,000  Level FlightAware ADS-B (KMDW)
06:09AM 43.9052 -90.0144 333° Northwest 433 498 34,000  Level FlightAware ADS-B (KMDW)
06:09AM 44.3156 -90.3094 333° Northwest 432 497 34,000  Level Minneapolis Center
06:10AM 44.4222 -90.3867 333° Northwest 432 497 34,000  Level Minneapolis Center
06:16AM 44.9801 -90.7968 333° Northwest 433 498 34,000  Level FlightAware ADS-B (KSGS)
06:17AM 45.0894 -90.8782 333° Northwest 433 498 34,000  Level FlightAware ADS-B (KSGS)
06:21AM 45.2210 -90.9767 332° Northwest 431 496 34,000  Level FlightAware ADS-B (KSGS)
06:22AM 45.6978 -91.3381 332° Northwest 432 497 34,000  Level Minneapolis Center
06:23AM 45.8044 -91.4200 332° Northwest 433 498 34,000  Level Minneapolis Center
06:24AM 45.9144 -91.5044 332° Northwest 434 499 34,000  Level Minneapolis Center
06:25AM 46.0189 -91.5853 332° Northwest 435 501 34,000  Level Minneapolis Center
06:26AM 46.1289 -91.6708 332° Northwest 436 502 34,000  Level Minneapolis Center
06:27AM 46.2425 -91.7597 332° Northwest 436 502 34,000  Level Minneapolis Center
06:28AM 46.3492 -91.8433 332° Northwest 437 503 34,000  Level Minneapolis Center
06:29AM 46.4561 -91.9272 332° Northwest 438 504 34,000  Level Minneapolis Center
06:30AM 46.5628 -92.0119 331° Northwest 438 504 34,000  Level Minneapolis Center
06:31AM 46.6694 -92.0967 331° Northwest 438 504 34,000  Level Minneapolis Center
06:32AM 46.7758 -92.1817 331° Northwest 438 504 34,000  Level Minneapolis Center
06:33AM 46.8867 -92.2578 335° Northwest 439 505 34,000  Level Minneapolis Center
06:34AM 46.9983 -92.3311 336° Northwest 441 507 34,000  Level Minneapolis Center
06:35AM 47.1097 -92.4042 336° Northwest 441 507 34,000  Level Minneapolis Center
06:36AM 47.2206 -92.4775 336° Northwest 440 506 34,000  Level Minneapolis Center
06:37AM 47.3308 -92.5506 336° Northwest 439 505 34,000  Level Minneapolis Center
06:38AM 47.4408 -92.6239 336° Northwest 439 505 34,000  Level Minneapolis Center
06:39AM 47.5508 -92.6978 336° Northwest 439 505 34,000  Level Minneapolis Center
06:40AM 47.6614 -92.7719 336° Northwest 440 506 34,000  Level Minneapolis Center
06:41AM 47.7722 -92.8472 335° Northwest 441 507 34,000  Level Minneapolis Center
06:42AM 47.8839 -92.9228 336° Northwest 443 510 34,000  Level Minneapolis Center
06:43AM 48.0181 -93.0147 335° Northwest 444 511 34,000  Level Minneapolis Center
06:44AM 48.1303 -93.0917 335° Northwest 445 512 34,000  Level Minneapolis Center
06:45AM 48.2428 -93.1694 335° Northwest 446 513 34,000  Level Minneapolis Center
06:46AM 48.3556 -93.2475 335° Northwest 447 514 34,000  Level Minneapolis Center
06:47AM 48.4686 -93.3264 335° Northwest 448 516 34,000  Level Minneapolis Center
06:48AM 48.5814 -93.4053 335° Northwest 448 516 34,000  Level Minneapolis Center
06:49AM 48.6939 -93.4844 335° Northwest 448 516 34,000  Level Minneapolis Center
06:55AM 49.3792 -93.9754 335° Northwest 442 509 34,000  Level FlightAware ADS-B (CYAV)
06:59AM 49.7320 -94.3957 319° Northwest 438 504 34,000  Level FlightAware ADS-B (CYAV)
07:00AM 49.7714 -94.4502 319° Northwest 439 505 34,000  Level FlightAware ADS-B (CYAV)
07:00AM 49.8252 -94.5247 319° Northwest 439 505 34,000  Level FlightAware ADS-B (CYAV)
07:01AM 49.8600 -94.5728 319° Northwest 441 507 34,000  Level FlightAware ADS-B (CYAV)
07:01AM 49.9162 -94.6512 319° Northwest 441 507 34,000  Level FlightAware ADS-B (CYAV)
07:02AM 49.9487 -94.6965 318° Northwest 441 507 34,000  Level FlightAware ADS-B (CYAV)
07:02AM 49.9628 -94.7162 319° Northwest 442 509 34,000  Level FlightAware ADS-B (CYAV)
07:03AM 50.0351 -94.8174 318° Northwest 443 510 34,000  Level FlightAware ADS-B (CYAV)
07:03AM 50.0824 -94.8838 318° Northwest 443 510 34,000  Level FlightAware ADS-B (CYAV)
07:04AM 50.1453 -94.9723 318° Northwest 443 510 34,000  Level FlightAware ADS-B (CYAV)
07:04AM 50.1836 -95.0265 318° Northwest 444 511 34,000  Level FlightAware ADS-B (CYAV)
07:05AM 50.2349 -95.0994 318° Northwest 445 512 34,000  Level FlightAware ADS-B (CYAV)
07:05AM 50.2671 -95.1451 318° Northwest 446 513 34,000  Level FlightAware ADS-B (CYAV)
07:05AM 50.2941 -95.1835 318° Northwest 446 513 34,000  Level FlightAware ADS-B (CYAV)
07:06AM 50.3627 -95.2814 318° Northwest 446 513 34,000  Level FlightAware ADS-B (CYAV)
07:07AM 50.4175 -95.3599 318° Northwest 446 513 34,000  Level FlightAware ADS-B (CYAV)
07:07AM 50.4580 -95.4183 318° Northwest 447 514 34,000  Level FlightAware ADS-B (CYAV)
07:08AM 50.4931 -95.4688 318° Northwest 446 513 34,000  Level FlightAware ADS-B (CYAV)
07:08AM 50.5569 -95.5610 318° Northwest 444 511 34,000  Level FlightAware ADS-B (CYAV)
07:09AM 50.6020 -95.6263 318° Northwest 440 506 34,000  Level FlightAware ADS-B (CYAV)
07:09AM 50.6363 -95.6762 318° Northwest 439 505 34,000  Level FlightAware ADS-B (CYAV)
07:10AM 50.6700 -95.7251 318° Northwest 437 503 34,000  Level FlightAware ADS-B (CYAV)
07:10AM 50.7229 -95.8025 318° Northwest 435 501 34,000  Level FlightAware ADS-B (CYAV)
07:11AM 50.7765 -95.8810 318° Northwest 433 498 34,000  Level FlightAware ADS-B (CYAV)
07:11AM 50.8142 -95.9364 318° Northwest 431 496 34,000  Level FlightAware ADS-B (CYAV)
07:11AM 50.8444 -95.9808 317° Northwest 430 495 34,000  Level FlightAware ADS-B (CYAV)
07:12AM 50.8914 -96.0501 317° Northwest 430 495 34,000  Level FlightAware ADS-B (CYAV)
07:13AM 50.9435 -96.1273 317° Northwest 429 494 34,000  Level FlightAware ADS-B (CYAV)
07:13AM 50.9766 -96.1763 317° Northwest 428 493 34,000  Level FlightAware ADS-B (CYAV)
07:14AM 51.0378 -96.2673 317° Northwest 428 493 34,000  Level FlightAware ADS-B (CYAV)
07:14AM 51.0770 -96.3258 317° Northwest 430 495 34,000  Level FlightAware ADS-B (CYAV)
07:15AM 51.1195 -96.3893 317° Northwest 432 497 34,000  Level FlightAware ADS-B (CYAV)
07:15AM 51.1654 -96.4583 317° Northwest 433 498 34,000  Level FlightAware ADS-B (CYAV)
07:16AM 51.1987 -96.5084 317° Northwest 433 498 34,000  Level FlightAware ADS-B (CYAV)
07:16AM 51.2333 -96.5608 317° Northwest 434 499 34,000  Level FlightAware ADS-B (CYAV)
07:16AM 51.2745 -96.6231 317° Northwest 435 501 34,000  Level FlightAware ADS-B (CYAV)
07:17AM 51.3319 -96.7101 317° Northwest 435 501 34,000  Level FlightAware ADS-B (CYAV)
07:17AM 51.3639 -96.7584 317° Northwest 436 502 34,000  Level FlightAware ADS-B (CYAV)
07:18AM 51.4249 -96.8518 317° Northwest 438 504 34,000  Level FlightAware ADS-B (CYAV)
07:19AM 51.4687 -96.9186 317° Northwest 439 505 34,000  Level FlightAware ADS-B (CYAV)
07:19AM 51.5107 -96.9830 317° Northwest 439 505 34,000  Level FlightAware ADS-B (CYAV)
07:20AM 51.5689 -97.0727 316° Northwest 442 509 34,000  Level FlightAware ADS-B (CYAV)
07:20AM 51.6226 -97.1557 316° Northwest 446 513 34,000  Level FlightAware ADS-B (CYAV)
07:21AM 51.6565 -97.2082 317° Northwest 448 516 34,000  Level FlightAware ADS-B (CYAV)
07:25AM 52.0531 -97.8310 316° Northwest 474 545 34,000  Level FlightAware ADS-B (CYAV)
07:26AM 52.1423 -97.9732 316° Northwest 478 550 34,000  Level FlightAware ADS-B (CYAV)
07:26AM 52.1487 -97.9836 316° Northwest 478 550 34,000  Level FlightAware ADS-B (CYAV)
07:27AM 52.2000 -98.0667 316° Northwest 470 541 34,000  Level Edmonton Center
07:28AM 52.3000 -98.2167 317° Northwest 480 552 34,000  Level Edmonton Center
07:29AM 52.4000 -98.3667 318° Northwest 480 552 34,000  Level Edmonton Center
07:30AM 52.4833 -98.5500 307° West 480 552 34,000  Level Edmonton Center
07:31AM 52.5833 -98.7000 318° Northwest 480 552 34,000  Level Edmonton Center
07:32AM 52.6667 -98.8500 313° West 490 564 34,000  Level Edmonton Center
07:33AM 52.7667 -99.0000 318° Northwest 480 552 34,000  Level Edmonton Center
07:34AM 52.8667 -99.1833 312° West 480 552 34,000  Level Edmonton Center
07:35AM 52.9500 -99.3500 310° West 490 564 34,000  Level Edmonton Center
07:36AM 53.0667 -99.5000 322° Northwest 500 575 34,000  Level Edmonton Center
07:37AM 53.1500 -99.6500 313° West 490 564 34,000  Level Edmonton Center
07:38AM 53.2500 -99.8500 310° West 490 564 34,000  Level Edmonton Center
07:39AM 53.3500 -100.0000 318° Northwest 490 564 34,000  Level Edmonton Center
07:40AM 53.4500 -100.1667 315° West 490 564 34,000  Level Edmonton Center
07:41AM 53.5500 -100.3500 313° West 500 575 34,000  Level Edmonton Center
07:42AM 53.6333 -100.5167 310° West 500 575 34,000  Level Edmonton Center
07:43AM 53.7500 -100.7000 317° Northwest 500 575 34,000  Level Edmonton Center
07:44AM 53.8333 -100.8667 310° West 510 587 34,000  Level Edmonton Center
07:45AM 53.9167 -101.0167 313° West 510 587 34,000  Level Edmonton Center
07:46AM 54.0167 -101.2167 310° West 500 575 34,000  Level Edmonton Center
07:47AM 54.1000 -101.4167 305° West 510 587 34,000  Level Edmonton Center
07:48AM 54.2000 -101.6000 313° West 510 587 34,000  Level Edmonton Center
07:49AM 54.2833 -101.8000 306° West 510 587 34,000  Level Edmonton Center
07:50AM 54.3833 -102.0000 311° West 520 598 34,000  Level Edmonton Center
07:51AM 54.4667 -102.2000 306° West 520 598 34,000  Level Edmonton Center
07:56AM 54.9198 -103.3707 302° West 528 608 34,000  Level FlightAware ADS-B (CYPA)
07:57AM 54.9551 -103.4710 302° West 526 605 34,000  Level FlightAware ADS-B (CYPA)
07:57AM 54.9998 -103.5991 302° West 526 605 34,000  Level FlightAware ADS-B (CYPA)
07:58AM 55.0268 -103.6766 302° West 525 604 34,000  Level FlightAware ADS-B (CYPA)
07:59AM 55.1072 -103.9088 302° West 525 604 34,000  Level FlightAware ADS-B (CYPA)
07:59AM 55.1441 -104.0161 302° West 525 604 34,000  Level FlightAware ADS-B (CYPA)
08:00AM 55.1800 -104.1208 302° West 525 604 34,000  Level FlightAware ADS-B (CYPA)
08:00AM 55.2012 -104.1826 302° West 525 604 34,000  Level FlightAware ADS-B (CYPA)
08:01AM 55.2590 -104.3529 302° West 525 604 34,000  Level FlightAware ADS-B (CYPA)
08:02AM 55.3131 -104.5134 302° West 525 604 34,000  Level FlightAware ADS-B (CYPA)
08:02AM 55.3429 -104.6020 302° West 525 604 34,000  Level FlightAware ADS-B (CYPA)
08:03AM 55.3830 -104.7220 302° West 525 604 34,000  Level FlightAware ADS-B (CYPA)
08:03AM 55.4149 -104.8177 301° West 518 596 34,000  Level FlightAware ADS-B (CYPA)
08:04AM 55.4609 -104.9570 301° West 518 596 34,000  Level FlightAware ADS-B (CYPA)
08:04AM 55.5000 -105.1333 301° West 520 598 34,000  Level Winnipeg Center
08:05AM 55.5833 -105.3167 309° West 520 598 34,000  Level Winnipeg Center
08:06AM 55.6500 -105.5500 297° West 520 598 34,000  Level Winnipeg Center
08:07AM 55.7167 -105.7667 299° West 520 598 34,000  Level Winnipeg Center
08:08AM 55.7833 -106.0000 297° West 520 598 34,000  Level Winnipeg Center
08:09AM 55.8500 -106.2167 299° West 520 598 34,000  Level Winnipeg Center
08:10AM 55.9167 -106.4500 297° West 520 598 34,000  Level Winnipeg Center
08:11AM 55.9667 -106.5667 307° West 510 587 34,000  Level Edmonton Center
08:12AM 56.0333 -106.7833 299° West 510 587 34,000  Level Edmonton Center
08:13AM 56.0833 -107.0333 290° West 520 598 34,000  Level Edmonton Center
08:14AM 56.1667 -107.2500 305° West 520 598 34,000  Level Edmonton Center
08:15AM 56.2333 -107.5000 296° West 520 598 34,000  Level Edmonton Center
08:16AM 56.3000 -107.7167 299° West 520 598 34,000  Level Edmonton Center
08:17AM 56.3667 -107.9333 299° West 520 598 34,000  Level Edmonton Center
08:18AM 56.4333 -108.1833 296° West 510 587 34,000  Level Edmonton Center
08:19AM 56.5000 -108.4333 296° West 510 587 34,000  Level Edmonton Center
08:20AM 56.5667 -108.6500 299° West 510 587 34,000  Level Edmonton Center
08:21AM 56.6333 -108.8833 298° West 510 587 34,000  Level Edmonton Center
08:22AM 56.7000 -109.1333 296° West 510 587 34,000 420 Level Edmonton Center
08:23AM 56.7667 -109.3500 299° West 510 587 34,900 960 Climbing Edmonton Center
08:24AM 56.8333 -109.5833 298° West 510 587 36,000 540 Climbing Edmonton Center
08:25AM 56.9000 -109.8000 299° West 520 598 36,000  Level Edmonton Center
08:26AM 56.9500 -110.0667 289° West 520 598 36,000  Level Edmonton Center
08:27AM 57.0333 -110.3000 303° West 510 587 36,000  Level Edmonton Center
08:28AM 57.0833 -110.5500 290° West 510 587 36,000  Level Edmonton Center
08:29AM 57.1500 -110.7833 298° West 510 587 36,000  Level Edmonton Center
08:30AM 57.2167 -111.0500 295° West 510 587 36,000  Level Edmonton Center
08:31AM 57.2667 -111.2667 293° West 510 587 36,000  Level Edmonton Center
08:32AM 57.3333 -111.5000 298° West 510 587 36,000  Level Edmonton Center
08:33AM 57.3833 -111.7333 292° West 510 587 36,000  Level Edmonton Center
08:34AM 57.4500 -112.0000 295° West 510 587 36,000  Level Edmonton Center
08:35AM 57.5167 -112.2333 298° West 510 587 36,000  Level Edmonton Center
08:36AM 57.5667 -112.5000 289° West 510 587 36,000  Level Edmonton Center
08:37AM 57.6167 -112.7333 292° West 510 587 36,000  Level Edmonton Center
08:38AM 57.6833 -113.0000 295° West 510 587 36,000  Level Edmonton Center
08:39AM 57.7333 -113.2333 292° West 510 587 36,000  Level Edmonton Center
08:40AM 57.8000 -113.4833 297° West 510 587 36,000  Level Edmonton Center
08:41AM 57.8500 -113.7167 292° West 510 587 36,000  Level Edmonton Center
08:42AM 57.9000 -113.9833 290° West 510 587 36,000  Level Edmonton Center
08:43AM 57.9500 -114.2333 291° West 510 587 36,000  Level Edmonton Center
08:44AM 58.0167 -114.4667 298° West 510 587 36,000  Level Edmonton Center
08:45AM 58.0667 -114.7333 290° West 510 587 36,000  Level Edmonton Center
08:46AM 58.1167 -114.9833 291° West 510 587 36,000  Level Edmonton Center
08:47AM 58.1833 -115.2667 294° West 510 587 36,000  Level Edmonton Center
08:48AM 58.2333 -115.5000 292° West 520 598 36,000  Level Edmonton Center
08:49AM 58.2833 -115.7833 289° West 510 587 36,000  Level Edmonton Center
08:50AM 58.3500 -116.0167 299° West 510 587 36,000  Level Edmonton Center
08:51AM 58.3833 -116.2667 284° West 510 587 36,000  Level Edmonton Center
08:52AM 58.4333 -116.5500 289° West 510 587 36,000  Level Edmonton Center
08:53AM 58.4833 -116.7833 292° West 510 587 36,000  Level Edmonton Center
08:54AM 58.5333 -117.0500 290° West 510 587 36,000  Level Edmonton Center
08:55AM 58.5833 -117.3167 290° West 510 587 36,000  Level Edmonton Center
08:56AM 58.6333 -117.5667 291° West 520 598 36,000  Level Edmonton Center
08:57AM 58.6833 -117.8500 289° West 510 587 36,000  Level Edmonton Center
08:58AM 58.7333 -118.1000 291° West 500 575 36,000  Level Edmonton Center
08:59AM 58.7833 -118.4000 288° West 520 598 36,000  Level Edmonton Center
09:00AM 58.8333 -118.6500 291° West 520 598 36,000  Level Edmonton Center
09:01AM 58.8667 -118.9333 283° West 520 598 36,000  Level Edmonton Center
09:02AM 58.9000 -119.1833 285° West 520 598 36,000  Level Edmonton Center
09:03AM 58.9667 -119.4333 297° West 530 610 36,000  Level Edmonton Center
09:04AM 59.0000 -119.7167 283° West 520 598 36,000  Level Edmonton Center
09:05AM 59.0500 -119.9833 290° West 540 621 36,000  Level Edmonton Center
09:06AM 59.0833 -120.2667 283° West 510 587 36,000  Level Edmonton Center
10:04AM 60.7167 -136.5000 278° West 510 587 36,000  Level Anchorage Center
10:05AM 60.6126 -135.0495 276° West  Level FlightAware Approximate
10:05AM 60.7333 -136.7833 277° West 500 575 36,000  Level Anchorage Center
10:06AM 60.6305 -135.3098 279° West  Level FlightAware Approximate
10:06AM 60.7500 -137.0667 277° West 510 587 36,000  Level Anchorage Center
10:07AM 60.6504 -135.5699 279° West  Level FlightAware Approximate
10:07AM 60.7667 -137.3500 277° West 500 575 36,000  Level Anchorage Center
10:08AM 60.6699 -135.8304 279° West  Level FlightAware Approximate
10:08AM 60.7833 -137.6333 277° West 500 575 36,000  Level Anchorage Center
10:09AM 60.6888 -136.0912 279° West  Level FlightAware Approximate
10:09AM 60.8000 -137.9333 277° West 500 575 36,000  Level Anchorage Center
10:10AM 60.7072 -136.3523 278° West  Level FlightAware Approximate
10:10AM 60.8167 -138.2167 277° West 500 575 36,000  Level Anchorage Center
10:11AM 60.8333 -138.5000 277° West 510 587 36,000  Level Anchorage Center
10:12AM 60.8500 -138.7833 277° West 500 575 36,000  Level Anchorage Center
10:13AM 60.8667 -139.0667 277° West 510 587 36,000  Level Anchorage Center
10:14AM 60.8833 -139.3667 277° West 500 575 36,000  Level Anchorage Center
10:15AM 60.9000 -139.6500 277° West 500 575 36,000  Level Anchorage Center
10:16AM 60.9167 -139.9333 277° West 510 587 36,000  Level Anchorage Center
10:17AM 60.9167 -140.2167 270° West 500 575 36,000  Level Anchorage Center
10:18AM 60.9333 -140.5333 276° West 500 575 36,000  Level Anchorage Center
10:19AM 60.9500 -140.8167 277° West 500 575 36,000  Level Anchorage Center
10:20AM 60.9500 -141.1000 270° West 500 575 36,000  Level Anchorage Center
10:21AM 60.9667 -141.3667 277° West 490 564 36,000  Level Anchorage Center
10:22AM 61.0000 -141.6500 284° West 490 564 36,000  Level Anchorage Center
10:23AM 61.0167 -141.9333 277° West 490 564 36,000  Level Anchorage Center
10:24AM 61.0333 -142.1667 278° West 490 564 36,000  Level Anchorage Center
10:25AM 61.0500 -142.5000 276° West 490 564 36,000  Level Anchorage Center
10:26AM 61.0833 -142.7667 285° West 490 564 36,000  Level Anchorage Center
10:27AM 61.1000 -143.0500 277° West 490 564 36,000  Level Anchorage Center
10:28AM 61.1167 -143.3333 277° West 490 564 36,000  Level Anchorage Center
10:35AM 61.2279 -145.1391 276° West 500 575 36,000 -60 Level FlightAware ADS-B (PAEN / ENA)
10:35AM 61.2383 -145.3448 276° West 501 577 35,700 -600 Descending FlightAware ADS-B (PAEN / ENA)
10:36AM 61.2463 -145.5051 275° West 487 560 35,300 -960 Descending FlightAware ADS-B (PAEN / ENA)
10:37AM 61.2529 -145.6445 275° West 474 545 34,700 -1,080 Descending FlightAware ADS-B (PAEN / ENA)
10:37AM 61.2614 -145.8270 276° West 464 534 34,000 -1,020 Descending FlightAware ADS-B (PAEN / ENA)
10:38AM 61.2711 -146.0401 275° West 457 526 33,200 -960 Descending FlightAware ADS-B (PAEN / ENA)
10:39AM 61.2770 -146.1696 275° West 447 514 32,800 -1,020 Descending FlightAware ADS-B (PAEN / ENA)
10:39AM 61.2822 -146.2874 275° West 440 506 32,200 -1,500 Descending FlightAware ADS-B (PAEN / ENA)
10:40AM 61.2876 -146.4166 275° West 435 501 31,300 -1,920 Descending FlightAware ADS-B (PAEN / ENA)
10:40AM 61.2929 -146.5461 275° West 436 502 30,300 -1,740 Descending FlightAware ADS-B (PAEN / ENA)
10:41AM 61.2977 -146.6683 275° West 427 491 29,600 -1,320 Descending FlightAware ADS-B (PAEN / ENA)
10:41AM 61.3027 -146.7913 275° West 413 475 29,000 -1,380 Descending FlightAware ADS-B (PAEN / ENA)
10:42AM 61.3095 -146.9654 275° West 405 466 27,900 -1,620 Descending FlightAware ADS-B (PAEN / ENA)
10:42AM 61.3139 -147.0799 275° West 405 466 27,000 -1,560 Descending FlightAware ADS-B (PAEN / ENA)
10:43AM 61.3200 -147.2508 274° West 400 460 26,000 -1,200 Descending FlightAware ADS-B (PAEN / ENA)
10:44AM 61.3243 -147.3698 274° West 393 452 25,500 -1,380 Descending FlightAware ADS-B (PAEN / ENA)
10:44AM 61.3296 -147.5265 274° West 387 445 24,300 -1,860 Descending FlightAware ADS-B (PANC)
10:45AM 61.3331 -147.6376 274° West 380 437 23,200 -2,160 Descending FlightAware ADS-B (PAEN / ENA)
10:45AM 61.3381 -147.7910 274° West 370 426 21,800 -1,980 Descending FlightAware ADS-B (PANC)
10:46AM 61.3390 -147.8151 273° West 357 411 20,900 -2,040 Descending FlightAware ADS-B (PANC)
10:47AM 61.3449 -148.0125 274° West 349 402 19,600 -2,160 Descending FlightAware ADS-B (PAEN / ENA)
10:47AM 61.3479 -148.1097 274° West 348 400 18,600 -1,620 Descending FlightAware ADS-B (PAEN / ENA)
10:48AM 61.3513 -148.2286 274° West 344 396 17,900 -1,320 Descending FlightAware ADS-B (PANC)
10:48AM 61.3550 -148.3595 273° West 336 387 17,000 -1,320 Descending FlightAware ADS-B (PAEN / ENA)
10:49AM 61.3574 -148.4495 273° West 335 386 16,400 -900 Descending FlightAware ADS-B (PANC)
10:49AM 61.3600 -148.5511 273° West 321 369 16,100 -1,080 Descending FlightAware ADS-B (PANC)
10:50AM 61.3629 -148.6588 273° West 324 373 15,200 -1,560 Descending FlightAware ADS-B (PANC)
10:51AM 61.3658 -148.7794 273° West 323 372 14,200 -1,500 Descending FlightAware ADS-B (PAEN / ENA)
10:51AM 61.3682 -148.8767 273° West 320 368 13,500 -1,440 Descending FlightAware ADS-B (PAEN / ENA)
10:52AM 61.3706 -148.9637 274° West 309 356 12,800 -1,740 Descending FlightAware ADS-B (PAEN / ENA)
10:52AM 61.3737 -149.0709 274° West 298 343 11,600 -1,920 Descending FlightAware ADS-B (PANC)
10:53AM 61.3772 -149.1756 274° West 288 331 10,400 -1,260 Descending FlightAware ADS-B (PAEN / ENA)
10:53AM 61.3797 -149.2594 273° West 267 307 10,200 -240 Descending FlightAware ADS-B (PAEN / ENA)
10:54AM 61.3819 -149.3372 273° West 269 310 10,200 -600 Level FlightAware ADS-B (PANC)
10:54AM 61.3833 -149.3876 274° West 272 313 9,700 -1,500 Descending FlightAware ADS-B (PANC)
10:54AM 61.3851 -149.4364 275° West 266 306 9,200 -1,260 Descending FlightAware ADS-B (PANC)
10:55AM 61.3875 -149.4908 275° West 251 289 8,900 -900 Descending FlightAware ADS-B (PANC)
10:55AM 61.3897 -149.5205 289° West 236 272 8,700 -600 Descending FlightAware ADS-B (PAEN / ENA)
10:55AM 61.3923 -149.5332 295° West 232 267 8,700 -480 Level FlightAware ADS-B (PANC)
10:55AM 61.4025 -149.5699 301° West 224 258 8,500 -1,080 Descending FlightAware ADS-B (PANC)
10:56AM 61.4139 -149.6100 301° West 221 254 8,000 -1,560 Descending FlightAware ADS-B (PANC)
10:56AM 61.4212 -149.6357 301° West 220 253 7,600 -1,620 Descending FlightAware ADS-B (PAEN / ENA)
10:56AM 61.4290 -149.6632 301° West 219 252 7,200 -1,620 Descending FlightAware ADS-B (PANC)
10:57AM 61.4373 -149.6916 302° West 218 251 6,800 -1,620 Descending FlightAware ADS-B (PAEN / ENA)
10:57AM 61.4437 -149.7128 303° West 219 252 6,400 -1,800 Descending FlightAware ADS-B (PANC)
10:57AM 61.4531 -149.7436 301° West 218 251 5,900 -1,680 Descending FlightAware ADS-B (PAEN / ENA)
10:57AM 61.4578 -149.7728 278° West 213 245 5,600 -1,260 Descending FlightAware ADS-B (PAEN / ENA)
10:58AM 61.4584 -149.8022 272° West 207 238 5,300 -1,200 Descending FlightAware ADS-B (PAEN / ENA)
10:58AM 61.4589 -149.8328 272° West 203 234 5,000 -1,200 Descending FlightAware ADS-B (PAEN / ENA)
10:58AM 61.4594 -149.8603 272° West 198 228 4,700 -1,020 Descending FlightAware ADS-B (PAEN / ENA)
10:58AM 61.4603 -149.8897 275° West 194 223 4,500 -720 Descending FlightAware ADS-B (PANC)
10:59AM 61.4619 -149.9255 275° West 184 212 4,300 -900 Descending FlightAware ADS-B (PANC)
10:59AM 61.4636 -149.9642 276° West 184 212 3,900 -1,200 Descending FlightAware ADS-B (PANC)
10:59AM 61.4651 -149.9966 276° West 186 214 3,500 -960 Descending FlightAware ADS-B (PANC)
11:00AM 61.4671 -150.0340 276° West 187 215 3,300 -660 Descending FlightAware ADS-B (PANC)
11:00AM 61.4674 -150.0444 263° West 183 211 3,200 -300 Descending FlightAware ADS-B (PANC)
11:00AM 61.4636 -150.0681 236° Southwest 176 203 3,200  Level FlightAware ADS-B (PANC)
11:00AM 61.4579 -150.0773 207° Southwest 174 200 3,200  Level FlightAware ADS-B (PANC)
11:01AM 61.4419 -150.0902 201° Southwest 171 197 3,200  Level FlightAware ADS-B (PANC)
11:01AM 61.4301 -150.0999 202° Southwest 169 194 3,200  Level FlightAware ADS-B (PANC)
11:01AM 61.4142 -150.1132 202° Southwest 172 198 3,200  Level FlightAware ADS-B (PANC)
11:02AM 61.4021 -150.1229 192° South 171 197 3,200  Level FlightAware ADS-B (PANC)
11:02AM 61.3953 -150.1249 182° South 171 197 3,200  Level FlightAware ADS-B (PAEN / ENA)
11:02AM 61.3901 -150.1232 168° South 175 201 3,200  Level FlightAware ADS-B (PANC)
11:02AM 61.3756 -150.1135 162° South 176 203 3,200  Level FlightAware ADS-B (PANC)
11:02AM 61.3613 -150.1059 165° South 174 200 3,200  Level FlightAware ADS-B (PAEN / ENA)
11:03AM 61.3483 -150.0983 164° South 174 200 3,200  Level FlightAware ADS-B (PAEN / ENA)
11:03AM 61.3426 -150.0951 166° South 172 198 3,200  Level FlightAware ADS-B (PAEN / ENA)
11:03AM 61.3252 -150.0853 164° South 170 196 3,200 -600 Level FlightAware ADS-B (PAEN / ENA)
11:03AM 61.3137 -150.0788 165° South 172 198 2,900 -1,020 Descending FlightAware ADS-B (PANC)
11:04AM 61.2982 -150.0701 165° South 166 191 2,600 -1,080 Descending FlightAware ADS-B (PANC)
11:04AM 61.2834 -150.0617 165° South 163 188 2,200 -1,080 Descending FlightAware ADS-B (PANC)
11:04AM 61.2704 -150.0544 165° South 152 175 1,900 -900 Descending FlightAware ADS-B (PANC)
11:05AM 61.2562 -150.0464 164° South 141 162 1,600 -780 Descending FlightAware ADS-B (PANC)
11:05AM 61.2439 -150.0395 165° South 133 153 1,400 -780 Descending FlightAware ADS-B (PANC)
11:05AM 61.2328 -150.0332 164° South 134 154 1,100 -780 Descending FlightAware ADS-B (PANC)
11:06AM 61.2215 -150.0268 164° South 129 148 900 -780 Descending FlightAware ADS-B (PANC)
11:06AM 61.2091 -150.0199 165° South 126 145 600 -780 Descending FlightAware ADS-B (PANC)
11:06AM 61.1973 -150.0132 165° South 136 157 400 -480 Descending FlightAware ADS-B (PANC)
11:07AM 61.1872 -150.0075 166° South 80 92 300 -300 Descending FlightAware ADS-B (PANC)